createdAt,value
2017-12-11T00:00:32.288Z,4.90
2017-12-11T00:02:58.380Z,5.68
2017-12-11T00:05:24.547Z,7.40
2017-12-11T00:07:50.704Z,8.35
2017-12-11T00:10:16.804Z,6.60
2017-12-11T00:12:42.941Z,5.90
2017-12-11T00:15:09.267Z,4.70
2017-12-11T00:17:35.375Z,8.48
2017-12-11T00:20:01.515Z,7.00
2017-12-11T00:22:40.581Z,7.87
2017-12-11T00:25:06.676Z,8.45
2017-12-11T00:27:33.084Z,6.55
2017-12-11T00:29:59.625Z,9.98
2017-12-11T00:32:26.064Z,7.82
2017-12-11T00:34:52.385Z,9.40
2017-12-11T00:37:18.713Z,11.27
2017-12-11T00:39:45.045Z,8.38
2017-12-11T00:42:11.495Z,6.85
2017-12-11T00:44:38.571Z,9.20
2017-12-11T00:47:04.903Z,10.70
2017-12-11T00:49:33.450Z,11.05
2017-12-11T00:51:59.789Z,10.35
2017-12-11T00:54:26.250Z,10.20
2017-12-11T00:56:52.689Z,9.73
2017-12-11T00:59:19.732Z,10.70
2017-12-11T01:01:46.190Z,9.95
2017-12-11T01:04:13.291Z,10.20
2017-12-11T01:06:39.616Z,12.15
2017-12-11T01:09:05.962Z,12.40
2017-12-11T01:11:32.706Z,8.73
2017-12-11T01:13:58.853Z,12.95
2017-12-11T01:16:25.212Z,11.85
2017-12-11T01:18:51.570Z,12.37
2017-12-11T01:21:21.817Z,10.40
2017-12-11T01:23:48.401Z,11.85
2017-12-11T01:26:14.703Z,10.50
2017-12-11T01:28:41.044Z,13.57
2017-12-11T01:31:07.389Z,13.35
2017-12-11T01:33:34.477Z,15.82
2017-12-11T01:36:00.804Z,14.32
2017-12-11T01:38:27.146Z,12.10
2017-12-11T01:40:57.264Z,12.23
2017-12-11T01:43:24.646Z,14.63
2017-12-11T01:45:50.901Z,10.27
2017-12-11T01:48:17.781Z,11.45
2017-12-11T01:50:43.901Z,15.80
2017-12-11T01:53:10.527Z,10.85
2017-12-11T01:55:36.649Z,10.05
2017-12-11T01:58:03.152Z,10.95
2017-12-11T02:00:30.795Z,8.13
2017-12-11T02:02:56.908Z,8.15
2017-12-11T02:05:23.042Z,8.77
2017-12-11T02:07:49.164Z,8.30
2017-12-11T02:10:16.097Z,8.18
2017-12-11T02:12:42.233Z,6.28
2017-12-11T02:15:08.362Z,8.43
2017-12-11T02:17:34.617Z,7.05
2017-12-11T02:20:00.774Z,8.57
2017-12-11T02:22:26.949Z,7.90
2017-12-11T02:24:53.324Z,7.00
2017-12-11T02:27:19.450Z,8.52
2017-12-11T02:29:45.604Z,8.68
2017-12-11T02:32:11.732Z,7.75
2017-12-11T02:34:37.862Z,10.45
2017-12-11T02:37:04.718Z,6.65
2017-12-11T02:39:31.588Z,7.90
2017-12-11T02:41:57.716Z,9.23
2017-12-11T02:44:23.854Z,7.03
2017-12-11T02:46:50.005Z,6.80
2017-12-11T02:49:16.249Z,5.82
2017-12-11T02:51:42.799Z,8.60
2017-12-11T02:54:08.942Z,6.37
2017-12-11T02:56:38.043Z,7.60
2017-12-11T02:59:04.270Z,7.28
2017-12-11T03:01:30.433Z,7.37
2017-12-11T03:03:56.548Z,7.03
2017-12-11T03:06:22.893Z,9.43
2017-12-11T03:08:49.265Z,7.97
2017-12-11T03:11:16.154Z,6.18
2017-12-11T03:13:42.288Z,10.20
2017-12-11T03:16:10.358Z,10.90
2017-12-11T03:18:36.692Z,9.60
2017-12-11T03:21:04.338Z,8.43
2017-12-11T03:23:30.462Z,8.93
2017-12-11T03:25:56.561Z,9.68
2017-12-11T03:28:22.729Z,7.70
2017-12-11T03:30:49.036Z,9.60
2017-12-11T03:33:15.318Z,9.93
2017-12-11T03:35:41.607Z,9.43
2017-12-11T03:38:07.916Z,7.30
2017-12-11T03:40:34.941Z,7.97
2017-12-11T03:43:01.520Z,12.55
2017-12-11T03:45:28.359Z,13.05
2017-12-11T03:47:55.434Z,11.30
2017-12-11T03:50:22.372Z,9.65
2017-12-11T03:52:48.488Z,11.35
2017-12-11T03:55:14.644Z,10.88
2017-12-11T03:57:40.757Z,9.40
2017-12-11T04:00:07.241Z,12.48
2017-12-11T04:02:33.377Z,12.30
2017-12-11T04:04:59.667Z,14.43
2017-12-11T04:07:26.867Z,12.73
2017-12-11T04:09:52.960Z,12.77
2017-12-11T04:12:19.126Z,12.63
2017-12-11T04:14:45.466Z,15.18
2017-12-11T04:17:12.052Z,13.18
2017-12-11T04:19:38.904Z,15.93
2017-12-11T04:22:07.969Z,17.95
2017-12-11T04:24:34.092Z,14.73
2017-12-11T04:27:00.216Z,16.08
2017-12-11T04:29:26.344Z,16.50
2017-12-11T04:31:53.340Z,15.25
2017-12-11T04:34:20.184Z,16.90
2017-12-11T04:36:46.301Z,15.00
2017-12-11T04:39:13.553Z,17.00
2017-12-11T04:41:39.685Z,13.00
2017-12-11T04:44:05.792Z,16.58
2017-12-11T04:46:31.985Z,15.02
2017-12-11T04:48:58.106Z,15.73
2017-12-11T04:51:24.214Z,18.40
2017-12-11T04:53:50.344Z,13.77
2017-12-11T04:56:16.456Z,14.35
2017-12-11T04:58:42.565Z,15.55
2017-12-11T05:01:08.956Z,16.73
2017-12-11T05:03:38.707Z,15.10
2017-12-11T05:06:04.845Z,13.70
2017-12-11T05:08:31.191Z,14.15
2017-12-11T05:10:57.380Z,15.88
2017-12-11T05:13:23.484Z,16.12
2017-12-11T05:15:50.364Z,13.98
2017-12-11T05:18:16.557Z,13.45
2017-12-11T05:20:42.704Z,15.15
2017-12-11T05:23:08.839Z,14.50
2017-12-11T05:25:34.957Z,15.02
2017-12-11T05:28:01.267Z,15.38
2017-12-11T05:30:27.384Z,14.70
2017-12-11T05:32:53.502Z,14.93
2017-12-11T05:35:19.854Z,14.87
2017-12-11T05:37:46.069Z,17.25
2017-12-11T05:40:12.954Z,15.93
2017-12-11T05:42:39.106Z,17.77
2017-12-11T05:45:05.953Z,15.05
2017-12-11T05:47:32.820Z,14.07
2017-12-11T05:49:59.676Z,19.33
2017-12-11T05:52:26.522Z,17.73
2017-12-11T05:54:52.656Z,18.65
2017-12-11T05:57:19.176Z,18.15
2017-12-11T05:59:45.279Z,20.20
2017-12-11T06:02:12.116Z,18.87
2017-12-11T06:04:38.789Z,22.35
2017-12-11T06:07:04.925Z,24.65
2017-12-11T06:09:34.300Z,22.55
2017-12-11T06:12:00.393Z,26.12
2017-12-11T06:14:26.522Z,25.42
2017-12-11T06:16:52.660Z,23.35
2017-12-11T06:19:18.795Z,26.33
2017-12-11T06:21:44.912Z,28.40
2017-12-11T06:24:11.064Z,25.20
2017-12-11T06:26:37.960Z,27.75
2017-12-11T06:29:04.247Z,24.90
2017-12-11T06:31:30.444Z,23.25
2017-12-11T06:33:56.561Z,21.30
2017-12-11T06:36:23.210Z,23.52
2017-12-11T06:38:49.352Z,23.38
2017-12-11T06:41:15.461Z,23.87
2017-12-11T06:43:41.590Z,24.55
2017-12-11T06:46:07.710Z,22.30
2017-12-11T06:48:33.842Z,21.20
2017-12-11T06:50:59.978Z,22.50
2017-12-11T06:53:29.809Z,21.27
2017-12-11T06:55:55.899Z,23.30
2017-12-11T06:58:22.058Z,21.08
2017-12-11T07:00:48.272Z,18.90
2017-12-11T07:03:14.381Z,22.20
2017-12-11T07:05:40.930Z,20.92
2017-12-11T07:08:07.131Z,20.73
2017-12-11T07:10:33.305Z,20.98
2017-12-11T07:12:59.422Z,20.58
2017-12-11T07:15:26.319Z,22.17
2017-12-11T07:17:52.421Z,26.08
2017-12-11T07:20:18.520Z,21.87
2017-12-11T07:22:44.657Z,26.02
2017-12-11T07:25:10.771Z,19.23
2017-12-11T07:27:38.702Z,23.02
2017-12-11T07:30:05.125Z,21.55
2017-12-11T07:35:28.509Z,22.70
2017-12-11T07:37:55.343Z,19.37
2017-12-11T07:40:21.456Z,20.85
2017-12-11T07:42:47.662Z,19.08
2017-12-11T07:45:14.581Z,25.30
2017-12-11T07:47:40.696Z,21.67
2017-12-11T07:50:07.053Z,20.42
2017-12-11T07:52:33.156Z,20.50
2017-12-11T07:54:59.256Z,22.67
2017-12-11T07:57:25.385Z,22.17
2017-12-11T07:59:51.542Z,21.45
2017-12-11T08:02:17.710Z,23.95
2017-12-11T08:04:43.808Z,21.98
2017-12-11T08:07:09.920Z,23.15
2017-12-11T08:09:36.759Z,19.98
2017-12-11T08:12:02.866Z,23.70
2017-12-11T08:14:29.077Z,23.27
2017-12-11T08:16:55.393Z,17.55
2017-12-11T08:19:21.958Z,22.98
2017-12-11T08:21:48.341Z,20.77
2017-12-11T08:24:14.668Z,22.98
2017-12-11T08:26:41.710Z,22.80
2017-12-11T08:29:08.606Z,22.73
2017-12-11T08:31:34.720Z,23.05
2017-12-11T08:34:01.581Z,19.15
2017-12-11T08:36:27.704Z,20.27
2017-12-11T08:38:54.012Z,23.08
2017-12-11T08:41:20.119Z,25.00
2017-12-11T08:43:46.212Z,24.63
2017-12-11T08:46:12.318Z,24.98
2017-12-11T08:48:38.426Z,23.45
2017-12-11T08:51:05.300Z,24.10
2017-12-11T08:53:31.396Z,25.25
2017-12-11T08:55:57.568Z,23.95
2017-12-11T08:58:24.408Z,22.10
2017-12-11T09:00:50.528Z,21.70
2017-12-11T09:03:16.702Z,24.73
2017-12-11T09:05:42.797Z,24.87
2017-12-11T09:08:08.990Z,21.55
2017-12-11T09:10:35.352Z,33.05
2017-12-11T09:13:02.106Z,28.05
2017-12-11T09:15:29.259Z,23.83
2017-12-11T09:17:55.438Z,26.75
2017-12-11T09:20:25.116Z,24.48
2017-12-11T09:22:51.488Z,27.10
2017-12-11T09:25:18.566Z,29.25
2017-12-11T09:27:44.871Z,27.75
2017-12-11T09:30:12.845Z,28.02
2017-12-11T09:32:39.167Z,25.70
2017-12-11T09:35:05.513Z,28.48
2017-12-11T09:37:32.119Z,28.85
2017-12-11T09:39:58.512Z,29.60
2017-12-11T09:42:24.860Z,29.83
2017-12-11T09:44:56.147Z,28.20
2017-12-11T09:47:22.452Z,32.47
2017-12-11T09:49:48.735Z,30.48
2017-12-11T09:52:15.752Z,33.88
2017-12-11T09:54:42.061Z,31.70
2017-12-11T09:57:08.361Z,33.03
2017-12-11T09:59:34.709Z,34.78
2017-12-11T10:02:04.094Z,38.05
2017-12-11T10:04:30.505Z,38.83
2017-12-11T10:06:57.579Z,34.78
2017-12-11T10:09:23.917Z,39.00
2017-12-11T10:11:50.233Z,39.03
2017-12-11T10:14:17.300Z,39.13
2017-12-11T10:16:43.703Z,44.28
2017-12-11T10:19:10.004Z,40.72
2017-12-11T10:21:38.733Z,37.00
2017-12-11T10:24:05.210Z,41.20
2017-12-11T10:26:32.287Z,43.55
2017-12-11T10:28:58.585Z,43.08
2017-12-11T10:31:24.934Z,40.80
2017-12-11T10:33:51.961Z,40.78
2017-12-11T10:36:18.297Z,35.47
2017-12-11T10:38:45.316Z,35.67
2017-12-11T10:41:14.952Z,40.65
2017-12-11T10:43:41.237Z,36.17
2017-12-11T10:46:07.524Z,38.83
2017-12-11T10:48:34.576Z,36.80
2017-12-11T10:51:00.888Z,37.67
2017-12-11T10:53:27.238Z,39.42
2017-12-11T10:55:53.745Z,42.35
2017-12-11T10:58:23.500Z,37.40
2017-12-11T11:00:49.816Z,43.13
2017-12-11T11:03:16.124Z,39.63
2017-12-11T11:05:43.165Z,33.78
2017-12-11T11:08:09.485Z,38.30
2017-12-11T11:10:35.811Z,42.25
2017-12-11T11:13:02.522Z,41.78
2017-12-11T11:15:28.868Z,35.75
2017-12-11T11:17:58.620Z,38.78
2017-12-11T11:20:24.905Z,40.12
2017-12-11T11:22:57.992Z,38.45
2017-12-11T11:25:24.839Z,37.35
2017-12-11T11:27:57.078Z,40.53
2017-12-11T11:30:26.499Z,32.75
2017-12-11T11:32:52.648Z,36.70
2017-12-11T11:35:18.740Z,35.00
2017-12-11T11:37:45.624Z,32.90
2017-12-11T11:40:11.930Z,36.67
2017-12-11T11:42:38.025Z,33.92
2017-12-11T11:45:04.888Z,29.27
2017-12-11T11:47:31.025Z,29.75
2017-12-11T11:50:00.917Z,28.42
2017-12-11T11:52:27.764Z,32.05
2017-12-11T11:54:53.950Z,33.30
2017-12-11T11:57:20.789Z,33.17
2017-12-11T11:59:46.885Z,37.28
2017-12-11T12:02:13.720Z,28.23
2017-12-11T12:04:39.840Z,32.58
2017-12-11T12:07:05.957Z,35.90
2017-12-11T12:09:38.249Z,29.80
2017-12-11T12:12:04.466Z,28.15
2017-12-11T12:14:30.623Z,32.28
2017-12-11T12:16:56.740Z,29.67
2017-12-11T12:19:23.222Z,33.03
2017-12-11T12:21:49.328Z,32.45
2017-12-11T12:24:15.456Z,35.97
2017-12-11T12:26:41.808Z,36.00
2017-12-11T12:29:13.924Z,37.13
2017-12-11T12:31:40.074Z,37.00
2017-12-11T12:34:06.229Z,36.15
2017-12-11T12:36:32.385Z,36.10
2017-12-11T12:38:58.500Z,34.30
2017-12-11T12:41:24.809Z,38.38
2017-12-11T12:43:50.962Z,37.17
2017-12-11T12:46:17.486Z,41.95
2017-12-11T12:48:47.037Z,40.17
2017-12-11T12:51:13.257Z,36.92
2017-12-11T12:53:39.365Z,34.80
2017-12-11T12:56:05.529Z,36.72
2017-12-11T12:58:31.692Z,36.20
2017-12-11T13:00:58.125Z,36.40
2017-12-11T13:03:24.964Z,34.92
2017-12-11T13:05:57.017Z,36.58
2017-12-11T13:08:23.953Z,34.03
2017-12-11T13:10:50.026Z,39.42
2017-12-11T13:13:17.008Z,33.08
2017-12-11T13:15:43.107Z,33.22
2017-12-11T13:18:09.608Z,37.17
2017-12-11T13:20:35.740Z,36.80
2017-12-11T13:23:07.950Z,38.58
2017-12-11T13:25:34.305Z,38.25
2017-12-11T13:28:00.697Z,35.88
2017-12-11T13:30:26.796Z,36.83
2017-12-11T13:32:52.917Z,39.45
2017-12-11T13:35:19.019Z,38.00
2017-12-11T13:37:45.631Z,40.92
2017-12-11T13:40:18.231Z,39.90
2017-12-11T13:42:44.465Z,44.83
2017-12-11T13:45:10.569Z,45.40
2017-12-11T13:47:36.683Z,42.60
2017-12-11T13:50:02.783Z,46.72
2017-12-11T13:52:29.617Z,40.53
2017-12-11T13:54:55.900Z,42.95
2017-12-11T13:57:22.748Z,43.55
2017-12-11T13:59:52.809Z,37.63
2017-12-11T14:02:18.950Z,41.42
2017-12-11T14:04:45.083Z,35.45
2017-12-11T14:07:11.176Z,42.33
2017-12-11T14:09:37.280Z,42.22
2017-12-11T14:12:04.196Z,41.25
2017-12-11T14:14:30.297Z,35.95
2017-12-11T14:16:56.661Z,43.03
2017-12-11T14:19:27.520Z,38.58
2017-12-11T14:21:53.654Z,41.72
2017-12-11T14:24:20.509Z,41.03
2017-12-11T14:26:46.697Z,35.33
2017-12-11T14:29:12.803Z,39.28
2017-12-11T14:31:38.912Z,44.08
2017-12-11T14:34:05.864Z,38.05
2017-12-11T14:36:32.130Z,42.70
2017-12-11T14:39:04.940Z,35.63
2017-12-11T14:41:32.214Z,38.33
2017-12-11T14:43:58.409Z,39.17
2017-12-11T14:46:24.504Z,40.38
2017-12-11T14:48:50.613Z,43.78
2017-12-11T14:51:16.789Z,45.83
2017-12-11T14:53:49.808Z,46.15
2017-12-11T14:56:16.136Z,44.08
2017-12-11T14:58:42.372Z,42.88
2017-12-11T15:01:09.400Z,45.45
2017-12-11T15:03:35.520Z,40.78
2017-12-11T15:06:02.583Z,42.58
2017-12-11T15:08:32.661Z,38.45
2017-12-11T15:10:58.818Z,42.95
2017-12-11T15:13:25.276Z,42.97
2017-12-11T15:15:51.456Z,42.67
2017-12-11T15:18:17.569Z,43.85
2017-12-11T15:20:43.944Z,35.33
2017-12-11T15:23:10.065Z,38.65
2017-12-11T15:25:42.658Z,41.15
2017-12-11T15:28:08.782Z,39.53
2017-12-11T15:30:34.972Z,44.78
2017-12-11T15:33:01.837Z,41.40
2017-12-11T15:35:28.086Z,42.88
2017-12-11T15:37:54.413Z,40.95
2017-12-11T15:40:21.261Z,46.90
2017-12-11T15:42:47.583Z,41.37
2017-12-11T15:45:13.900Z,50.70
2017-12-11T15:47:40.101Z,41.60
2017-12-11T15:50:06.238Z,43.60
2017-12-11T15:52:33.104Z,46.47
2017-12-11T15:54:59.228Z,40.47
2017-12-11T15:57:25.345Z,42.72
2017-12-11T15:59:52.879Z,41.90
2017-12-11T16:02:19.037Z,46.15
2017-12-11T16:04:45.204Z,47.22
2017-12-11T16:07:11.327Z,48.03
2017-12-11T16:09:37.441Z,51.20
2017-12-11T16:12:03.565Z,50.50
2017-12-11T16:14:30.655Z,56.85
2017-12-11T16:16:56.813Z,46.42
2017-12-11T16:19:23.644Z,49.25
2017-12-11T16:21:49.956Z,49.47
2017-12-11T16:24:16.204Z,46.37
2017-12-11T16:26:42.448Z,44.67
2017-12-11T16:29:08.586Z,46.30
2017-12-11T16:31:34.769Z,49.50
2017-12-11T16:34:01.046Z,48.63
2017-12-11T16:36:27.220Z,52.30
2017-12-11T16:38:54.623Z,42.40
2017-12-11T16:41:21.517Z,58.85
2017-12-11T16:43:48.539Z,44.17
2017-12-11T16:46:14.876Z,50.00
2017-12-11T16:48:41.072Z,50.53
2017-12-11T16:51:07.333Z,47.17
2017-12-11T16:53:35.073Z,46.25
2017-12-11T16:56:01.497Z,42.67
2017-12-11T16:58:28.174Z,45.10
2017-12-11T17:00:54.580Z,42.90
2017-12-11T17:03:20.908Z,40.58
2017-12-11T17:05:47.246Z,35.60
2017-12-11T17:08:13.557Z,36.78
2017-12-11T17:10:41.552Z,38.63
2017-12-11T17:13:07.892Z,39.75
2017-12-11T17:15:34.981Z,33.75
2017-12-11T17:18:01.998Z,30.85
2017-12-11T17:20:28.356Z,26.65
2017-12-11T17:22:55.407Z,23.00
2017-12-11T17:25:21.689Z,21.30
2017-12-11T17:27:48.882Z,22.48
2017-12-11T17:30:15.055Z,14.48
2017-12-11T17:32:41.349Z,17.73
2017-12-11T17:35:07.555Z,15.50
2017-12-11T17:37:33.928Z,12.43
2017-12-11T17:40:00.261Z,13.05
2017-12-11T17:42:30.033Z,11.23
2017-12-11T17:44:57.097Z,12.93
2017-12-11T17:47:23.253Z,8.23
2017-12-11T17:49:49.370Z,7.85
2017-12-11T17:52:15.468Z,9.93
2017-12-11T17:54:41.825Z,7.87
2017-12-11T17:57:13.753Z,8.02
2017-12-11T17:59:40.060Z,5.95
2017-12-11T18:02:06.391Z,10.77
2017-12-11T18:04:32.720Z,7.50
2017-12-11T18:06:59.026Z,7.25
2017-12-11T18:09:26.083Z,6.57
2017-12-11T18:14:24.456Z,7.37
2017-12-11T18:16:51.517Z,7.07
2017-12-11T18:19:17.640Z,5.28
2017-12-11T18:21:43.805Z,6.05
2017-12-11T18:24:10.857Z,4.00
2017-12-11T18:26:43.197Z,5.50
2017-12-11T18:29:09.685Z,4.68
2017-12-11T18:31:36.150Z,4.25
2017-12-11T18:34:02.541Z,4.20
2017-12-11T18:36:29.641Z,5.85
2017-12-11T18:38:55.982Z,5.85
2017-12-11T18:41:22.373Z,3.50
2017-12-11T18:43:51.747Z,4.18
2017-12-11T18:46:18.130Z,6.30
2017-12-11T18:48:44.494Z,2.65
2017-12-11T18:51:10.830Z,2.53
2017-12-11T18:53:37.127Z,3.80
2017-12-11T18:56:03.437Z,2.87
2017-12-11T18:58:29.805Z,5.50
2017-12-11T19:00:56.129Z,5.28
2017-12-11T19:03:29.183Z,3.95
2017-12-11T19:05:55.376Z,5.40
2017-12-11T19:08:22.024Z,2.62
2017-12-11T19:10:48.121Z,8.02
2017-12-11T19:13:14.968Z,2.80
2017-12-11T19:15:41.277Z,3.58
2017-12-11T19:18:07.619Z,4.65
2017-12-11T19:20:33.992Z,2.10
2017-12-11T19:23:00.356Z,3.35
2017-12-11T19:25:26.672Z,2.03
2017-12-11T19:27:54.329Z,1.98
2017-12-11T19:30:20.658Z,1.87
2017-12-11T19:32:46.994Z,4.10
2017-12-11T19:35:13.321Z,5.50
2017-12-11T19:37:42.248Z,4.72
2017-12-11T19:40:08.673Z,3.75
2017-12-11T19:42:35.777Z,5.28
2017-12-11T19:45:02.086Z,7.70
2017-12-11T19:47:29.165Z,4.78
2017-12-11T19:49:56.016Z,3.80
2017-12-11T19:52:22.177Z,4.35
2017-12-11T19:54:48.311Z,4.43
2017-12-11T19:57:21.136Z,12.93
2017-12-11T19:59:47.208Z,5.45
2017-12-11T20:02:13.313Z,8.98
2017-12-11T20:04:39.742Z,10.55
2017-12-11T20:07:05.894Z,10.30
2017-12-11T20:09:32.057Z,6.95
2017-12-11T20:11:58.310Z,4.93
2017-12-11T20:14:25.221Z,8.85
2017-12-11T20:16:51.344Z,8.25
2017-12-11T20:19:18.936Z,7.18
2017-12-11T20:21:45.036Z,4.00
2017-12-11T20:24:11.888Z,6.03
2017-12-11T20:26:41.251Z,4.80
2017-12-11T20:29:07.345Z,7.85
2017-12-11T20:31:33.501Z,6.03
2017-12-11T20:33:59.634Z,6.18
2017-12-11T20:36:25.854Z,6.30
2017-12-11T20:38:52.059Z,5.75
2017-12-11T20:41:18.208Z,5.43
2017-12-11T20:43:44.292Z,4.68
2017-12-11T20:46:10.436Z,6.60
2017-12-11T20:48:36.673Z,6.55
2017-12-11T20:51:02.786Z,5.10
2017-12-11T20:53:28.905Z,4.75
2017-12-11T20:55:54.992Z,5.90
2017-12-11T20:58:21.291Z,8.95
2017-12-11T21:00:47.630Z,13.48
2017-12-11T21:03:13.983Z,7.68
2017-12-11T21:05:40.331Z,6.80
2017-12-11T21:08:06.695Z,7.25
2017-12-11T21:10:33.118Z,8.85
2017-12-11T21:12:59.484Z,12.37
2017-12-11T21:15:26.088Z,7.10
2017-12-11T21:17:52.430Z,6.12
2017-12-11T21:20:18.870Z,9.23
2017-12-11T21:22:45.446Z,7.20
2017-12-11T21:25:15.294Z,4.30
2017-12-11T21:27:41.627Z,5.28
2017-12-11T21:30:08.169Z,7.37
2017-12-11T21:32:35.248Z,6.57
2017-12-11T21:35:02.294Z,4.82
2017-12-11T21:37:29.368Z,5.53
2017-12-11T21:39:55.692Z,3.85
2017-12-11T21:42:22.005Z,3.40
2017-12-11T21:44:48.283Z,5.78
2017-12-11T21:47:14.598Z,4.72
2017-12-11T21:49:40.919Z,4.60
2017-12-11T21:52:07.309Z,3.08
2017-12-11T21:54:33.588Z,2.92
2017-12-11T21:56:59.977Z,6.72
2017-12-11T21:59:26.444Z,7.62
2017-12-11T22:04:27.272Z,3.50
2017-12-11T22:06:54.152Z,3.62
2017-12-11T22:09:20.340Z,4.53
2017-12-11T22:11:46.572Z,5.28
2017-12-11T22:14:14.373Z,4.30
2017-12-11T22:16:40.479Z,5.05
2017-12-11T22:19:06.682Z,4.97
2017-12-11T22:21:32.840Z,5.93
2017-12-11T22:23:59.054Z,9.45
2017-12-11T22:26:25.385Z,6.37
2017-12-11T22:28:51.701Z,5.05
2017-12-11T22:31:18.012Z,6.10
2017-12-11T22:33:44.502Z,6.22
2017-12-11T22:36:11.795Z,4.50
2017-12-11T22:38:38.276Z,4.30
2017-12-11T22:41:04.818Z,4.30
2017-12-11T22:43:31.599Z,3.67
2017-12-11T22:45:58.267Z,5.90
2017-12-11T22:48:25.540Z,3.35
2017-12-11T22:50:52.742Z,6.22
2017-12-11T22:53:19.517Z,3.87
2017-12-11T22:55:46.813Z,3.58
2017-12-11T22:58:13.116Z,6.22
2017-12-11T23:00:39.996Z,7.90
2017-12-11T23:03:06.338Z,9.52
2017-12-11T23:05:32.723Z,5.05
2017-12-11T23:08:01.075Z,4.32
2017-12-11T23:10:28.356Z,6.40
2017-12-11T23:12:55.398Z,5.15
2017-12-11T23:15:21.855Z,6.62
2017-12-11T23:17:48.144Z,6.12
2017-12-11T23:20:14.988Z,7.85
2017-12-11T23:22:41.244Z,10.93
2017-12-11T23:25:07.987Z,20.83
2017-12-11T23:27:34.299Z,28.30
2017-12-11T23:30:01.416Z,28.08
2017-12-11T23:32:27.722Z,30.52
2017-12-11T23:34:54.808Z,35.28
2017-12-11T23:37:21.148Z,31.67
2017-12-11T23:39:47.452Z,33.42
2017-12-11T23:42:13.752Z,41.47
2017-12-11T23:44:40.809Z,35.85
2017-12-11T23:47:07.037Z,34.00
2017-12-11T23:49:33.379Z,40.20
2017-12-11T23:52:00.301Z,34.97
2017-12-11T23:54:32.472Z,55.08
2017-12-11T23:56:59.600Z,35.85
2017-12-11T23:59:25.908Z,39.05
